Time,TemperatureF,DewpointF,PressureIn,WindDirection,WindDirectionDegrees,WindSpeedMPH,WindSpeedGustMPH,Humidity,HourlyPrecipIn,Conditions,Clouds,dailyrainin,SoftwareType,DateUTC
2013-08-04 00:04:00,66.2,54.5,30.20,West,270,1.1,-999.0,66,-99.99,,,0.00,Acu-Link.com,2013-08-04 06:04:00,
2013-08-04 00:19:00,65.1,54.3,30.21,East,90,2.2,-999.0,68,-99.99,,,0.00,Acu-Link.com,2013-08-04 06:19:00,
2013-08-04 00:34:00,64.4,54.4,30.21,WNW,292,3.7,-999.0,70,-99.99,,,0.00,Acu-Link.com,2013-08-04 06:34:00,
2013-08-04 00:50:00,65.1,55.8,30.21,ENE,67,4.2,-999.0,72,-99.99,,,0.00,Acu-Link.com,2013-08-04 06:50:00,
2013-08-04 01:05:00,66.0,56.3,30.20,SE,135,4.2,-999.0,71,-99.99,,,0.00,Acu-Link.com,2013-08-04 07:05:00,
2013-08-04 01:20:00,66.4,55.9,30.19,SSE,157,6.3,-999.0,69,-99.99,,,0.00,Acu-Link.com,2013-08-04 07:20:00,
2013-08-04 01:34:00,66.2,55.3,30.20,SE,135,10.9,-999.0,68,-99.99,,,0.00,Acu-Link.com,2013-08-04 07:34:00,
2013-08-04 01:50:00,66.2,55.3,30.21,ESE,112,10.4,-999.0,68,-99.99,,,0.00,Acu-Link.com,2013-08-04 07:50:00,
2013-08-04 02:05:00,65.8,54.9,30.21,SSE,157,5.8,-999.0,68,-99.99,,,0.00,Acu-Link.com,2013-08-04 08:05:00,
2013-08-04 02:20:00,65.5,55.1,30.20,East,90,6.8,-999.0,69,-99.99,,,0.00,Acu-Link.com,2013-08-04 08:20:00,
2013-08-04 02:35:00,65.1,55.1,30.20,SE,135,5.3,-999.0,70,-99.99,,,0.00,Acu-Link.com,2013-08-04 08:35:00,
2013-08-04 02:50:00,64.8,54.8,30.19,ENE,67,4.2,-999.0,70,-99.99,,,0.00,Acu-Link.com,2013-08-04 08:50:00,
2013-08-04 03:05:00,64.6,54.6,30.19,NE,45,2.2,-999.0,70,-99.99,,,0.00,Acu-Link.com,2013-08-04 09:05:00,
2013-08-04 03:20:00,64.0,54.0,30.19,WNW,292,4.2,-999.0,70,-99.99,,,0.00,Acu-Link.com,2013-08-04 09:20:00,
2013-08-04 03:36:00,62.6,53.4,30.19,South,180,3.2,-999.0,72,-99.99,,,0.00,Acu-Link.com,2013-08-04 09:36:00,
2013-08-04 03:51:00,62.8,54.0,30.20,South,180,3.2,-999.0,73,-99.99,,,0.00,Acu-Link.com,2013-08-04 09:51:00,
2013-08-04 04:21:00,60.6,53.0,30.20,SSE,157,4.2,-999.0,76,-99.99,,,0.00,Acu-Link.com,2013-08-04 10:21:00,
2013-08-04 04:36:00,59.9,52.3,30.20,SE,135,1.7,-999.0,76,-99.99,,,0.00,Acu-Link.com,2013-08-04 10:36:00,
2013-08-04 04:52:00,59.5,52.3,30.21,SSW,202,2.2,-999.0,77,-99.99,,,0.00,Acu-Link.com,2013-08-04 10:52:00,
2013-08-04 05:07:00,58.8,52.0,30.20,SSE,157,4.2,-999.0,78,-99.99,,,0.00,Acu-Link.com,2013-08-04 11:07:00,
2013-08-04 05:22:00,58.5,52.0,30.22,SE,135,5.8,-999.0,79,-99.99,,,0.00,Acu-Link.com,2013-08-04 11:22:00,
2013-08-04 05:37:00,58.1,51.6,30.23,SSW,202,2.7,-999.0,79,-99.99,,,0.00,Acu-Link.com,2013-08-04 11:37:00,
2013-08-04 05:52:00,57.4,50.9,30.22,SSW,202,0.0,-999.0,79,-99.99,,,0.00,Acu-Link.com,2013-08-04 11:52:00,
2013-08-04 06:07:00,56.1,50.7,30.23,SSW,202,0.0,-999.0,82,-99.99,,,0.00,Acu-Link.com,2013-08-04 12:07:00,
2013-08-04 06:23:00,55.8,51.0,30.24,SSW,202,0.0,-999.0,84,-99.99,,,0.00,Acu-Link.com,2013-08-04 12:23:00,
2013-08-04 06:38:00,56.1,51.0,30.24,SSE,157,0.0,-999.0,83,-99.99,,,0.00,Acu-Link.com,2013-08-04 12:38:00,
2013-08-04 06:53:00,56.5,51.1,30.23,ENE,67,0.0,-999.0,82,-99.99,,,0.00,Acu-Link.com,2013-08-04 12:53:00,
2013-08-04 07:09:00,60.6,54.7,30.24,NE,45,0.0,-999.0,81,-99.99,,,0.00,Acu-Link.com,2013-08-04 13:09:00,
2013-08-04 07:24:00,64.8,55.9,30.24,NE,45,0.0,-999.0,73,-99.99,,,0.00,Acu-Link.com,2013-08-04 13:24:00,
2013-08-04 07:39:00,67.5,57.0,30.25,WNW,292,2.2,-999.0,69,-99.99,,,0.00,Acu-Link.com,2013-08-04 13:39:00,
2013-08-04 07:55:00,70.2,57.4,30.25,WNW,292,0.0,-999.0,64,-99.99,,,0.00,Acu-Link.com,2013-08-04 13:55:00,
2013-08-04 08:10:00,72.9,58.2,30.25,ENE,67,0.0,-999.0,60,-99.99,,,0.00,Acu-Link.com,2013-08-04 14:10:00,
2013-08-04 08:25:00,74.7,58.9,30.25,WNW,292,2.7,-999.0,58,-99.99,,,0.00,Acu-Link.com,2013-08-04 14:25:00,
2013-08-04 08:41:00,75.6,58.8,30.25,West,270,1.7,-999.0,56,-99.99,,,0.00,Acu-Link.com,2013-08-04 14:41:00,
2013-08-04 08:56:00,76.6,58.2,30.25,NW,315,1.7,-999.0,53,-99.99,,,0.00,Acu-Link.com,2013-08-04 14:56:00,
2013-08-04 09:11:00,77.5,59.0,30.24,WNW,292,0.0,-999.0,53,-99.99,,,0.00,Acu-Link.com,2013-08-04 15:11:00,
2013-08-04 09:41:00,73.9,56.7,30.24,NW,315,4.2,-999.0,55,-99.99,,,0.00,Acu-Link.com,2013-08-04 15:41:00,
2013-08-04 09:56:00,74.7,56.4,30.24,NNW,337,2.7,-999.0,53,-99.99,,,0.00,Acu-Link.com,2013-08-04 15:56:00,
2013-08-04 10:12:00,76.1,56.6,30.23,NNE,22,2.7,-999.0,51,-99.99,,,0.00,Acu-Link.com,2013-08-04 16:12:00,
2013-08-04 10:27:00,77.5,56.2,30.24,NNE,22,3.2,-999.0,48,-99.99,,,0.00,Acu-Link.com,2013-08-04 16:27:00,
2013-08-04 10:42:00,78.1,57.9,30.23,NW,315,3.7,-999.0,50,-99.99,,,0.00,Acu-Link.com,2013-08-04 16:42:00,
2013-08-04 10:58:00,78.3,57.0,30.23,NNW,337,4.7,-999.0,48,-99.99,,,0.00,Acu-Link.com,2013-08-04 16:58:00,
2013-08-04 11:13:00,79.2,57.2,30.22,NE,45,4.2,-999.0,47,-99.99,,,0.00,Acu-Link.com,2013-08-04 17:13:00,
2013-08-04 11:28:00,79.9,57.2,30.22,ESE,112,3.2,-999.0,46,-99.99,,,0.00,Acu-Link.com,2013-08-04 17:28:00,
2013-08-04 11:43:00,81.1,57.1,30.22,NNE,22,3.7,-999.0,44,-99.99,,,0.00,Acu-Link.com,2013-08-04 17:43:00,
2013-08-04 11:59:00,81.9,57.8,30.20,ESE,112,2.7,-999.0,44,-99.99,,,0.00,Acu-Link.com,2013-08-04 17:59:00,
2013-08-04 12:14:00,82.8,56.0,30.19,South,180,2.2,-999.0,40,-99.99,,,0.00,Acu-Link.com,2013-08-04 18:14:00,
2013-08-04 12:29:00,83.8,55.5,30.19,SW,225,4.7,-999.0,38,-99.99,,,0.00,Acu-Link.com,2013-08-04 18:29:00,
2013-08-04 12:45:00,83.5,57.3,30.17,ESE,112,0.0,-999.0,41,-99.99,,,0.00,Acu-Link.com,2013-08-04 18:45:00,
2013-08-04 13:00:00,83.7,56.1,30.18,West,270,5.3,-999.0,39,-99.99,,,0.00,Acu-Link.com,2013-08-04 19:00:00,
2013-08-04 13:15:00,85.8,56.5,30.16,West,270,5.8,-999.0,37,-99.99,,,0.00,Acu-Link.com,2013-08-04 19:15:00,
2013-08-04 13:31:00,87.1,53.6,30.16,WNW,292,3.2,-999.0,32,-99.99,,,0.00,Acu-Link.com,2013-08-04 19:31:00,
2013-08-04 13:46:00,86.9,55.9,30.16,NNW,337,3.2,-999.0,35,-99.99,,,0.00,Acu-Link.com,2013-08-04 19:46:00,
2013-08-04 14:01:00,87.8,57.5,30.15,West,270,3.2,-999.0,36,-99.99,,,0.00,Acu-Link.com,2013-08-04 20:01:00,
2013-08-04 14:16:00,86.2,54.5,30.14,West,270,6.8,-999.0,34,-99.99,,,0.00,Acu-Link.com,2013-08-04 20:16:00,
2013-08-04 14:31:00,87.6,53.2,30.15,SW,225,3.2,-999.0,31,-99.99,,,0.00,Acu-Link.com,2013-08-04 20:31:00,
2013-08-04 14:46:00,84.4,52.9,30.14,West,270,8.9,-999.0,34,-99.99,,,0.00,Acu-Link.com,2013-08-04 20:46:00,
2013-08-04 15:01:00,82.4,53.5,30.14,NNW,337,6.3,-999.0,37,-99.99,,,0.00,Acu-Link.com,2013-08-04 21:01:00,
2013-08-04 15:32:00,81.1,54.5,30.14,NW,315,6.8,-999.0,40,-99.99,,,0.00,Acu-Link.com,2013-08-04 21:32:00,
2013-08-04 15:47:00,80.4,54.5,30.13,West,270,2.7,-999.0,41,-99.99,,,0.00,Acu-Link.com,2013-08-04 21:47:00,
2013-08-04 16:02:00,82.9,55.4,30.13,West,270,4.2,-999.0,39,-99.99,,,0.00,Acu-Link.com,2013-08-04 22:02:00,
2013-08-04 16:18:00,83.3,52.8,30.14,South,180,3.2,-999.0,35,-99.99,,,0.00,Acu-Link.com,2013-08-04 22:18:00,
2013-08-04 16:33:00,84.6,52.3,30.13,SSW,202,2.2,-999.0,33,-99.99,,,0.00,Acu-Link.com,2013-08-04 22:33:00,
2013-08-04 16:48:00,86.0,53.5,30.12,West,270,3.7,-999.0,33,-99.99,,,0.00,Acu-Link.com,2013-08-04 22:48:00,
2013-08-04 17:03:00,84.6,53.1,30.12,WNW,292,2.7,-999.0,34,-99.99,,,0.00,Acu-Link.com,2013-08-04 23:03:00,
2013-08-04 17:18:00,84.6,53.1,30.12,West,270,3.2,-999.0,34,-99.99,,,0.00,Acu-Link.com,2013-08-04 23:18:00,
2013-08-04 17:34:00,83.3,52.0,30.12,West,270,1.7,-999.0,34,-99.99,,,0.00,Acu-Link.com,2013-08-04 23:34:00,
2013-08-04 17:49:00,82.9,50.8,30.10,West,270,4.2,-999.0,33,-99.99,,,0.00,Acu-Link.com,2013-08-04 23:49:00,
2013-08-04 18:04:00,82.6,46.2,30.11,SW,225,2.2,-999.0,28,-99.99,,,0.00,Acu-Link.com,2013-08-05 00:04:00,
2013-08-04 18:19:00,82.2,47.7,30.11,SW,225,2.2,-999.0,30,-99.99,,,0.00,Acu-Link.com,2013-08-05 00:19:00,
2013-08-04 18:35:00,81.5,49.6,30.11,SSE,157,2.2,-999.0,33,-99.99,,,0.00,Acu-Link.com,2013-08-05 00:35:00,
2013-08-04 18:50:00,78.6,52.9,30.13,ESE,112,4.7,-999.0,41,-99.99,,,0.00,Acu-Link.com,2013-08-05 00:50:00,
2013-08-04 19:05:00,77.4,52.5,30.11,South,180,6.3,-999.0,42,-99.99,,,0.00,Acu-Link.com,2013-08-05 01:05:00,
2013-08-04 19:20:00,76.3,51.5,30.13,ESE,112,6.8,-999.0,42,-99.99,,,0.00,Acu-Link.com,2013-08-05 01:20:00,
2013-08-04 19:35:00,74.3,51.0,30.15,East,90,10.4,-999.0,44,-99.99,,,0.00,Acu-Link.com,2013-08-05 01:35:00,
2013-08-04 19:50:00,73.2,51.7,30.15,East,90,10.4,-999.0,47,-99.99,,,0.00,Acu-Link.com,2013-08-05 01:50:00,
2013-08-04 20:06:00,72.0,52.3,30.16,SE,135,5.8,-999.0,50,-99.99,,,0.00,Acu-Link.com,2013-08-05 02:06:00,
2013-08-04 20:21:00,71.4,52.3,30.15,East,90,4.7,-999.0,51,-99.99,,,0.00,Acu-Link.com,2013-08-05 02:21:00,
2013-08-04 20:36:00,70.9,52.4,30.16,SSE,157,11.4,-999.0,52,-99.99,,,0.00,Acu-Link.com,2013-08-05 02:36:00,
2013-08-04 21:06:00,70.2,52.3,30.17,ESE,112,5.8,-999.0,53,-99.99,,,0.00,Acu-Link.com,2013-08-05 03:06:00,
2013-08-04 21:37:00,69.4,51.5,30.19,West,270,1.1,-999.0,53,-99.99,,,0.00,Acu-Link.com,2013-08-05 03:37:00,
2013-08-04 21:52:00,68.9,51.6,30.21,South,180,3.2,-999.0,54,-99.99,,,0.00,Acu-Link.com,2013-08-05 03:52:00,
2013-08-04 22:08:00,68.7,52.4,30.20,ESE,112,1.7,-999.0,56,-99.99,,,0.00,Acu-Link.com,2013-08-05 04:08:00,
2013-08-04 22:23:00,68.0,52.2,30.22,SE,135,0.0,-999.0,57,-99.99,,,0.00,Acu-Link.com,2013-08-05 04:23:00,
2013-08-04 22:38:00,67.6,51.3,30.24,WNW,292,0.0,-999.0,56,-99.99,,,0.00,Acu-Link.com,2013-08-05 04:38:00,
2013-08-04 22:53:00,68.0,50.2,30.25,WNW,292,5.3,-999.0,53,-99.99,,,0.00,Acu-Link.com,2013-08-05 04:53:00,
2013-08-04 23:08:00,68.0,50.2,30.26,NNE,22,5.3,-999.0,53,-99.99,,,0.00,Acu-Link.com,2013-08-05 05:08:00,
2013-08-04 23:24:00,67.3,50.6,30.27,WNW,292,2.7,-999.0,55,-99.99,,,0.00,Acu-Link.com,2013-08-05 05:24:00,
2013-08-04 23:39:00,66.7,51.0,30.29,SW,225,8.3,-999.0,57,-99.99,,,0.00,Acu-Link.com,2013-08-05 05:39:00,
2013-08-04 23:54:00,65.3,51.9,30.29,ESE,112,6.3,-999.0,62,-99.99,,,0.00,Acu-Link.com,2013-08-05 05:54:00,